createdAt,value
2022-12-09T00:01:52.886Z,47.27
2022-12-09T00:04:21.089Z,48.83
2022-12-09T00:06:49.431Z,50.30
2022-12-09T00:09:18.184Z,52.00
2022-12-09T00:11:46.334Z,51.13
2022-12-09T00:14:14.333Z,49.37
2022-12-09T00:16:43.759Z,50.27
2022-12-09T00:19:11.987Z,50.00
2022-12-09T00:21:40.056Z,53.97
2022-12-09T00:24:11.089Z,51.10
2022-12-09T00:26:39.429Z,51.83
2022-12-09T00:29:08.108Z,52.03
2022-12-09T00:31:38.526Z,54.43
2022-12-09T00:34:12.509Z,57.53
2022-12-09T00:36:41.012Z,52.00
2022-12-09T00:39:09.117Z,49.60
2022-12-09T00:41:37.518Z,48.13
2022-12-09T00:44:06.214Z,49.00
2022-12-09T00:46:34.296Z,44.47
2022-12-09T00:49:02.361Z,43.87
2022-12-09T00:51:31.724Z,37.87
2022-12-09T00:53:59.809Z,37.43
2022-12-09T00:56:29.451Z,41.27
2022-12-09T00:58:58.107Z,42.03
2022-12-09T01:01:27.519Z,40.70
2022-12-09T01:03:56.134Z,33.40
2022-12-09T01:06:26.319Z,34.83
2022-12-09T01:08:56.053Z,31.50
2022-12-09T01:11:26.595Z,33.73
2022-12-09T01:13:57.693Z,35.27
2022-12-09T01:16:28.699Z,31.63
2022-12-09T01:18:59.651Z,36.03
2022-12-09T01:21:28.731Z,36.87
2022-12-09T01:23:58.292Z,38.97
2022-12-09T01:26:26.445Z,34.87
2022-12-09T01:28:55.663Z,36.63
2022-12-09T01:31:25.841Z,36.40
2022-12-09T01:33:56.019Z,35.17
2022-12-09T01:36:25.743Z,34.13
2022-12-09T01:38:53.763Z,39.03
2022-12-09T01:41:23.387Z,38.77
2022-12-09T01:44:10.502Z,38.50
2022-12-09T01:46:38.824Z,37.37
2022-12-09T01:49:08.670Z,34.37
2022-12-09T01:51:38.113Z,40.10
2022-12-09T01:54:06.294Z,41.37
2022-12-09T01:56:38.636Z,38.67
2022-12-09T01:59:09.971Z,39.10
2022-12-09T02:01:39.124Z,34.97
2022-12-09T02:04:08.024Z,36.70
2022-12-09T02:06:37.818Z,34.87
2022-12-09T02:09:06.568Z,37.70
2022-12-09T02:11:46.792Z,34.40
2022-12-09T02:14:21.763Z,37.77
2022-12-09T02:16:57.234Z,38.30
2022-12-09T02:19:42.023Z,33.60
2022-12-09T02:22:13.770Z,36.80
2022-12-09T02:24:47.173Z,38.23
2022-12-09T02:27:22.875Z,34.93
2022-12-09T02:30:00.884Z,30.67
2022-12-09T02:32:49.116Z,27.97
2022-12-09T02:35:23.903Z,29.10
2022-12-09T02:37:57.661Z,32.40
2022-12-09T02:40:32.475Z,33.27
2022-12-09T02:43:03.987Z,33.97
2022-12-09T02:45:33.931Z,27.30
2022-12-09T02:48:03.757Z,29.43
2022-12-09T02:50:37.595Z,31.03
2022-12-09T02:53:09.890Z,28.17
2022-12-09T02:55:40.353Z,28.97
2022-12-09T02:58:08.747Z,30.13
2022-12-09T03:00:38.288Z,32.80
2022-12-09T03:03:09.750Z,27.57
2022-12-09T03:05:49.504Z,32.67
2022-12-09T03:08:27.697Z,32.73
2022-12-09T03:10:59.852Z,28.97
2022-12-09T03:13:46.850Z,27.53
2022-12-09T03:16:22.587Z,27.30
2022-12-09T03:18:56.862Z,27.13
2022-12-09T03:21:29.450Z,27.40
2022-12-09T03:23:59.670Z,30.80
2022-12-09T03:26:31.138Z,26.70
2022-12-09T03:29:01.239Z,28.10
2022-12-09T03:31:32.626Z,26.83
2022-12-09T03:34:05.177Z,25.87
2022-12-09T03:36:37.873Z,26.03
2022-12-09T03:39:11.189Z,33.47
2022-12-09T03:41:45.000Z,31.20
2022-12-09T03:44:17.922Z,28.47
2022-12-09T03:46:46.664Z,29.63
2022-12-09T03:49:15.384Z,29.13
2022-12-09T03:51:48.944Z,29.20
2022-12-09T03:54:21.457Z,28.27
2022-12-09T03:56:53.240Z,31.70
2022-12-09T03:59:23.275Z,31.50
2022-12-09T04:01:52.674Z,30.17
2022-12-09T04:04:21.071Z,32.63
2022-12-09T04:06:53.763Z,33.63
2022-12-09T04:09:22.382Z,31.53
2022-12-09T04:11:50.464Z,28.70
2022-12-09T04:14:18.677Z,28.90
2022-12-09T04:16:46.920Z,29.77
2022-12-09T04:19:15.168Z,29.67
2022-12-09T04:21:43.409Z,31.17
2022-12-09T04:24:13.211Z,26.67
2022-12-09T04:26:41.566Z,28.57
2022-12-09T04:29:11.383Z,30.57
2022-12-09T04:31:39.786Z,26.83
2022-12-09T04:34:09.787Z,28.63
2022-12-09T04:36:38.758Z,24.17
2022-12-09T04:39:07.544Z,24.37
2022-12-09T04:41:37.654Z,26.63
2022-12-09T04:44:06.553Z,25.23
2022-12-09T04:46:35.010Z,28.10
2022-12-09T04:49:03.260Z,27.03
2022-12-09T04:51:37.528Z,29.77
2022-12-09T04:54:08.094Z,31.20
2022-12-09T04:56:37.578Z,32.27
2022-12-09T04:59:06.257Z,31.57
2022-12-09T05:01:35.399Z,33.93
2022-12-09T05:04:04.230Z,32.80
2022-12-09T05:06:32.811Z,39.67
2022-12-09T05:09:01.187Z,47.00
2022-12-09T05:11:29.665Z,43.10
2022-12-09T05:13:59.272Z,38.80
2022-12-09T05:16:27.473Z,37.20
2022-12-09T05:18:56.200Z,37.63
2022-12-09T05:21:24.385Z,41.63
2022-12-09T05:23:53.046Z,35.47
2022-12-09T05:26:23.442Z,31.73
2022-12-09T05:28:52.434Z,33.97
2022-12-09T05:31:24.010Z,35.63
2022-12-09T05:33:53.482Z,36.73
2022-12-09T05:36:25.303Z,39.47
2022-12-09T05:38:54.088Z,35.80
2022-12-09T05:41:23.791Z,35.57
2022-12-09T05:43:52.574Z,34.73
2022-12-09T05:46:22.520Z,39.93
2022-12-09T05:48:51.082Z,38.17
2022-12-09T05:51:24.664Z,42.03
2022-12-09T05:53:53.948Z,38.37
2022-12-09T05:56:24.224Z,38.20
2022-12-09T05:58:53.361Z,35.70
2022-12-09T06:01:23.774Z,41.37
2022-12-09T06:03:53.488Z,41.80
2022-12-09T06:06:24.038Z,42.30
2022-12-09T06:08:56.456Z,40.77
2022-12-09T06:11:25.663Z,42.23
2022-12-09T06:13:54.747Z,37.37
2022-12-09T06:16:24.987Z,39.13
2022-12-09T06:18:53.549Z,41.53
2022-12-09T06:21:22.130Z,43.40
2022-12-09T06:23:51.702Z,43.70
2022-12-09T06:26:22.202Z,46.73
2022-12-09T06:28:50.907Z,41.40
2022-12-09T06:31:19.805Z,42.00
2022-12-09T06:33:55.391Z,44.10
2022-12-09T06:36:25.400Z,44.17
2022-12-09T06:38:54.748Z,39.97
2022-12-09T06:41:23.209Z,43.47
2022-12-09T06:43:51.492Z,42.77
2022-12-09T06:46:23.501Z,40.80
2022-12-09T06:48:54.143Z,43.30
2022-12-09T06:51:24.315Z,45.03
2022-12-09T06:53:52.738Z,48.90
2022-12-09T06:56:21.004Z,46.67
2022-12-09T06:58:49.282Z,42.27
2022-12-09T07:01:19.805Z,44.37
2022-12-09T07:03:58.591Z,47.17
2022-12-09T07:06:31.093Z,39.83
2022-12-09T07:09:03.923Z,43.17
2022-12-09T07:11:32.776Z,41.73
2022-12-09T07:14:01.388Z,43.43
2022-12-09T07:16:30.313Z,40.07
2022-12-09T07:18:58.741Z,43.30
2022-12-09T07:21:29.186Z,35.87
2022-12-09T07:24:00.779Z,37.17
2022-12-09T07:26:32.659Z,41.87
2022-12-09T07:29:03.113Z,44.23
2022-12-09T07:31:31.792Z,41.13
2022-12-09T07:34:00.896Z,44.93
2022-12-09T07:36:32.977Z,44.10
2022-12-09T07:39:04.032Z,43.60
2022-12-09T07:41:32.429Z,38.10
2022-12-09T07:44:00.705Z,43.87
2022-12-09T07:46:29.148Z,40.30
2022-12-09T07:48:58.867Z,40.77
2022-12-09T07:51:29.590Z,41.03
2022-12-09T07:53:59.565Z,40.00
2022-12-09T07:56:29.361Z,35.20
2022-12-09T07:58:58.184Z,38.67
2022-12-09T08:01:28.486Z,35.57
2022-12-09T08:03:57.253Z,37.33
2022-12-09T08:06:28.505Z,40.37
2022-12-09T08:09:01.674Z,38.40
2022-12-09T08:11:31.860Z,40.43
2022-12-09T08:14:07.261Z,42.93
2022-12-09T08:16:39.295Z,47.10
2022-12-09T08:19:08.077Z,47.93
2022-12-09T08:21:36.766Z,44.07
2022-12-09T08:24:08.825Z,46.53
2022-12-09T08:26:39.303Z,42.23
2022-12-09T08:29:10.065Z,47.00
2022-12-09T08:31:41.541Z,46.07
2022-12-09T08:34:10.867Z,43.27
2022-12-09T08:36:39.243Z,48.93
2022-12-09T08:39:09.499Z,46.77
2022-12-09T08:41:40.048Z,46.83
2022-12-09T08:44:11.121Z,43.40
2022-12-09T08:46:41.098Z,52.80
2022-12-09T08:49:10.852Z,46.07
2022-12-09T08:51:39.714Z,46.77
2022-12-09T08:54:09.248Z,45.00
2022-12-09T08:56:37.425Z,49.87
2022-12-09T08:59:06.111Z,46.67
2022-12-09T09:01:35.833Z,48.83
2022-12-09T09:04:06.641Z,47.00
2022-12-09T09:06:35.400Z,46.30
2022-12-09T09:09:04.396Z,47.43
2022-12-09T09:11:35.325Z,49.13
2022-12-09T09:14:05.809Z,43.03
2022-12-09T09:16:34.874Z,49.50
2022-12-09T09:19:06.004Z,49.77
2022-12-09T09:21:35.910Z,46.30
2022-12-09T09:24:08.704Z,46.27
2022-12-09T09:26:41.612Z,44.90
2022-12-09T09:29:11.836Z,47.40
2022-12-09T09:31:39.998Z,43.77
2022-12-09T09:34:09.086Z,44.30
2022-12-09T09:36:37.685Z,45.97
2022-12-09T09:39:06.105Z,43.93
2022-12-09T09:41:45.641Z,46.30
2022-12-09T09:44:23.282Z,40.03
2022-12-09T09:46:53.659Z,41.50
2022-12-09T09:49:29.860Z,43.47
2022-12-09T09:51:59.172Z,40.90
2022-12-09T09:54:27.557Z,39.67
2022-12-09T09:57:01.419Z,49.57
2022-12-09T09:59:40.530Z,43.70
2022-12-09T10:02:19.761Z,45.13
2022-12-09T10:05:06.042Z,39.87
2022-12-09T10:07:40.313Z,35.37
2022-12-09T10:10:32.399Z,38.13
2022-12-09T10:13:18.488Z,37.53
2022-12-09T10:15:54.046Z,38.73
2022-12-09T10:18:26.996Z,32.47
2022-12-09T10:20:55.581Z,34.23
2022-12-09T10:23:25.247Z,30.47
2022-12-09T10:25:56.880Z,34.33
2022-12-09T10:28:30.009Z,30.77
2022-12-09T10:30:58.960Z,33.30
2022-12-09T10:33:31.364Z,32.70
2022-12-09T10:36:00.096Z,35.17
2022-12-09T10:38:30.445Z,40.37
2022-12-09T10:41:03.855Z,36.07
2022-12-09T10:43:36.363Z,33.83
2022-12-09T10:46:17.862Z,36.90
2022-12-09T10:48:56.275Z,36.37
2022-12-09T10:51:27.151Z,36.33
2022-12-09T10:54:00.012Z,38.30
2022-12-09T10:56:30.104Z,34.50
2022-12-09T10:59:13.152Z,41.47
2022-12-09T11:01:53.638Z,38.97
2022-12-09T11:04:26.407Z,37.03
2022-12-09T11:06:59.811Z,38.73
2022-12-09T11:09:30.985Z,45.00
2022-12-09T11:12:00.159Z,40.50
2022-12-09T11:14:35.148Z,37.63
2022-12-09T11:17:16.488Z,34.83
2022-12-09T11:19:47.909Z,39.83
2022-12-09T11:22:29.043Z,43.17
2022-12-09T11:25:10.966Z,40.17
2022-12-09T11:27:42.110Z,48.47
2022-12-09T11:30:17.892Z,45.37
2022-12-09T11:33:09.768Z,48.10
2022-12-09T11:35:52.845Z,47.80
2022-12-09T11:38:46.221Z,56.70
2022-12-09T11:41:41.488Z,50.30
2022-12-09T11:44:26.397Z,44.97
2022-12-09T11:47:02.630Z,42.37
2022-12-09T11:49:33.855Z,41.07
2022-12-09T11:52:06.451Z,35.10
2022-12-09T11:54:42.867Z,33.87
2022-12-09T11:57:22.693Z,40.90
2022-12-09T11:59:54.932Z,63.53
2022-12-09T12:02:31.942Z,40.57
2022-12-09T12:05:04.029Z,40.73
2022-12-09T12:07:39.525Z,42.27
2022-12-09T12:10:17.677Z,38.43
2022-12-09T12:12:52.489Z,44.00
2022-12-09T12:15:25.653Z,44.73
2022-12-09T12:17:57.239Z,44.03
2022-12-09T12:20:42.059Z,41.50
2022-12-09T12:23:28.865Z,38.67
2022-12-09T12:26:04.875Z,41.97
2022-12-09T12:29:07.515Z,46.37
2022-12-09T12:31:58.901Z,39.07
2022-12-09T12:34:39.133Z,47.80
2022-12-09T12:37:21.208Z,43.87
2022-12-09T12:39:59.420Z,55.00
2022-12-09T12:42:37.591Z,68.70
2022-12-09T12:45:32.769Z,65.50
2022-12-09T12:48:07.103Z,64.73
2022-12-09T12:50:55.705Z,51.43
2022-12-09T12:53:35.876Z,51.13
2022-12-09T12:56:08.105Z,49.87
2022-12-09T12:58:55.161Z,46.33
2022-12-09T13:01:31.152Z,46.60
2022-12-09T13:04:08.785Z,50.17
2022-12-09T13:06:45.413Z,52.63
2022-12-09T13:09:20.624Z,46.87
2022-12-09T13:12:01.591Z,42.00
2022-12-09T13:14:35.329Z,49.67
2022-12-09T13:17:08.348Z,49.70
2022-12-09T13:19:41.321Z,45.90
2022-12-09T13:22:17.324Z,56.40
2022-12-09T13:24:59.794Z,57.50
2022-12-09T13:27:34.689Z,56.33
2022-12-09T13:30:05.926Z,48.27
2022-12-09T13:33:00.702Z,51.27
2022-12-09T13:35:35.804Z,48.97
2022-12-09T13:38:05.724Z,44.27
2022-12-09T13:40:36.889Z,50.60
2022-12-09T13:43:13.828Z,46.67
2022-12-09T13:45:58.072Z,46.00
2022-12-09T13:48:48.009Z,50.77
2022-12-09T13:51:17.676Z,50.70
2022-12-09T13:53:51.888Z,55.17
2022-12-09T13:56:27.040Z,50.70
2022-12-09T13:59:33.455Z,53.50
2022-12-09T14:02:04.195Z,57.03
2022-12-09T14:04:35.977Z,56.93
2022-12-09T14:07:17.089Z,52.27
2022-12-09T14:09:51.635Z,44.83
2022-12-09T14:12:53.080Z,35.23
2022-12-09T14:15:39.888Z,31.27
2022-12-09T14:18:31.128Z,34.47
2022-12-09T14:21:25.123Z,46.67
2022-12-09T14:24:31.733Z,37.37
2022-12-09T14:27:21.618Z,39.90
2022-12-09T14:29:53.075Z,44.73
2022-12-09T14:32:29.034Z,41.53
2022-12-09T14:35:19.647Z,37.50
2022-12-09T14:38:01.374Z,52.30
2022-12-09T14:40:53.958Z,49.23
2022-12-09T14:43:50.138Z,54.80
2022-12-09T14:46:24.244Z,57.07
2022-12-09T14:48:56.389Z,49.67
2022-12-09T14:51:27.124Z,50.70
2022-12-09T14:53:59.390Z,42.13
2022-12-09T14:56:28.776Z,34.17
2022-12-09T14:59:03.979Z,26.93
2022-12-09T15:01:47.279Z,24.30
2022-12-09T15:04:24.707Z,25.23
2022-12-09T15:07:14.620Z,32.13
2022-12-09T15:09:54.346Z,35.20
2022-12-09T15:12:26.133Z,36.30
2022-12-09T15:14:58.764Z,38.93
2022-12-09T15:17:30.745Z,40.93
2022-12-09T15:20:00.534Z,39.53
2022-12-09T15:22:31.487Z,44.27
2022-12-09T15:24:59.864Z,43.10
2022-12-09T15:27:27.985Z,46.00
2022-12-09T15:29:57.448Z,43.53
2022-12-09T15:32:27.571Z,45.50
2022-12-09T15:34:55.989Z,42.67
2022-12-09T15:37:28.155Z,44.67
2022-12-09T15:40:01.386Z,44.57
2022-12-09T15:42:33.810Z,51.77
2022-12-09T15:45:09.230Z,53.10
2022-12-09T15:47:40.200Z,54.17
2022-12-09T15:50:18.252Z,52.17
2022-12-09T15:52:51.212Z,48.30
2022-12-09T15:55:23.885Z,46.60
2022-12-09T15:57:56.142Z,49.57
2022-12-09T16:00:25.699Z,49.50
2022-12-09T16:02:54.222Z,51.20
2022-12-09T16:05:24.785Z,49.33
2022-12-09T16:07:57.881Z,57.00
2022-12-09T16:10:27.686Z,55.90
2022-12-09T16:13:07.820Z,43.63
2022-12-09T16:15:53.581Z,40.87
2022-12-09T16:18:24.777Z,41.07
2022-12-09T16:21:18.980Z,43.80
2022-12-09T16:23:49.904Z,40.83
2022-12-09T16:26:22.325Z,40.73
2022-12-09T16:28:59.249Z,40.43
2022-12-09T16:31:29.160Z,70.10
2022-12-09T16:33:57.555Z,80.03
2022-12-09T16:36:27.585Z,46.30
2022-12-09T16:39:43.627Z,45.17
2022-12-09T16:42:27.780Z,44.10
2022-12-09T16:45:21.814Z,34.03
2022-12-09T16:47:54.457Z,36.70
2022-12-09T16:50:23.052Z,36.93
2022-12-09T16:52:51.063Z,35.40
2022-12-09T16:55:22.101Z,37.40
2022-12-09T16:57:50.802Z,38.87
2022-12-09T17:00:19.650Z,38.10
2022-12-09T17:02:53.578Z,41.67
2022-12-09T17:05:21.559Z,61.87
2022-12-09T17:07:49.571Z,92.13
2022-12-09T17:10:17.995Z,52.57
2022-12-09T17:12:46.698Z,48.20
2022-12-09T17:15:15.494Z,48.90
2022-12-09T17:17:48.261Z,48.00
2022-12-09T17:20:18.268Z,54.30
2022-12-09T17:22:46.259Z,50.80
2022-12-09T17:25:14.679Z,52.50
2022-12-09T17:27:42.670Z,53.50
2022-12-09T17:30:11.672Z,54.27
2022-12-09T17:32:39.934Z,69.90
2022-12-09T17:35:12.561Z,60.07
2022-12-09T17:37:42.522Z,56.43
2022-12-09T17:40:12.043Z,65.13
2022-12-09T17:42:40.210Z,67.93
2022-12-09T17:45:10.299Z,67.07
2022-12-09T17:47:38.461Z,60.33
2022-12-09T17:50:07.050Z,62.70
2022-12-09T17:52:35.531Z,60.80
2022-12-09T17:55:06.647Z,60.57
2022-12-09T17:57:34.782Z,66.83
2022-12-09T18:00:02.895Z,68.67
2022-12-09T18:02:30.872Z,67.87
2022-12-09T18:05:01.620Z,67.00
2022-12-09T18:07:29.584Z,71.93
2022-12-09T18:09:57.558Z,63.97
2022-12-09T18:12:26.880Z,65.73
2022-12-09T18:14:54.869Z,68.13
2022-12-09T18:17:22.986Z,89.97
2022-12-09T18:19:50.978Z,72.27
2022-12-09T18:22:18.943Z,61.20
2022-12-09T18:24:46.923Z,66.80
2022-12-09T18:27:14.880Z,66.57
2022-12-09T18:29:44.249Z,66.13
2022-12-09T18:32:12.175Z,65.80
2022-12-09T18:34:40.181Z,68.47
2022-12-09T18:37:08.512Z,72.67
2022-12-09T18:39:37.656Z,72.97
2022-12-09T18:42:06.635Z,65.93
2022-12-09T18:44:34.764Z,68.90
2022-12-09T18:47:04.194Z,68.57
2022-12-09T18:49:32.157Z,69.50
2022-12-09T18:52:00.167Z,68.63
2022-12-09T18:54:32.322Z,66.07
2022-12-09T18:57:03.819Z,64.57
2022-12-09T18:59:32.341Z,62.13
2022-12-09T19:02:00.452Z,61.23
2022-12-09T19:04:30.977Z,63.10
2022-12-09T19:07:00.879Z,66.97
2022-12-09T19:09:33.294Z,68.00
2022-12-09T19:12:22.928Z,63.30
2022-12-09T19:14:50.703Z,65.07
2022-12-09T19:17:19.097Z,62.90
2022-12-09T19:19:49.442Z,64.47
2022-12-09T19:22:17.401Z,56.50
2022-12-09T19:24:45.393Z,56.90
2022-12-09T19:27:13.906Z,59.27
2022-12-09T19:29:42.047Z,58.30
2022-12-09T19:32:29.579Z,61.77
2022-12-09T19:34:59.448Z,59.07
2022-12-09T19:37:27.441Z,61.47
2022-12-09T19:39:55.415Z,60.27
2022-12-09T19:42:23.381Z,60.40
2022-12-09T19:45:12.130Z,65.00
2022-12-09T19:47:39.420Z,62.90
2022-12-09T19:50:10.012Z,58.47
2022-12-09T19:52:38.285Z,60.70
2022-12-09T19:55:08.397Z,56.77
2022-12-09T19:57:36.364Z,51.17
2022-12-09T20:00:05.183Z,59.20
2022-12-09T20:02:34.258Z,56.97
2022-12-09T20:05:02.260Z,55.50
2022-12-09T20:07:31.575Z,54.57
2022-12-09T20:09:59.543Z,51.50
2022-12-09T20:12:27.660Z,42.30
2022-12-09T20:14:55.629Z,48.20
2022-12-09T20:17:23.577Z,51.90
2022-12-09T20:19:51.528Z,46.00
2022-12-09T20:22:19.485Z,44.27
2022-12-09T20:24:48.802Z,41.97
2022-12-09T20:27:16.765Z,44.60
2022-12-09T20:29:44.747Z,40.80
2022-12-09T20:32:12.801Z,38.40
2022-12-09T20:34:40.858Z,41.13
2022-12-09T20:37:09.063Z,36.80
2022-12-09T20:39:37.133Z,40.90
2022-12-09T20:42:06.579Z,36.97
2022-12-09T20:44:34.544Z,43.03
2022-12-09T20:47:02.548Z,46.93
2022-12-09T20:49:30.701Z,46.67
2022-12-09T20:51:58.756Z,49.10
2022-12-09T20:54:26.881Z,49.57
2022-12-09T20:56:54.906Z,55.47
2022-12-09T20:59:25.206Z,57.47
2022-12-09T21:01:54.254Z,55.77
2022-12-09T21:04:22.575Z,68.23
2022-12-09T21:06:50.560Z,58.40
2022-12-09T21:09:22.198Z,67.77
2022-12-09T21:11:51.124Z,58.97
2022-12-09T21:14:19.263Z,55.37
2022-12-09T21:16:50.516Z,57.53
2022-12-09T21:19:25.242Z,63.30
2022-12-09T21:21:54.503Z,57.83
2022-12-09T21:24:24.219Z,58.07
2022-12-09T21:26:55.407Z,51.07
2022-12-09T21:29:31.188Z,53.23
2022-12-09T21:32:01.926Z,50.70
2022-12-09T21:34:30.144Z,49.83
2022-12-09T21:36:58.197Z,44.73
2022-12-09T21:39:26.377Z,44.77
2022-12-09T21:41:55.259Z,44.43
2022-12-09T21:44:25.400Z,39.17
2022-12-09T21:46:53.497Z,39.10
2022-12-09T21:49:22.936Z,43.83
2022-12-09T21:51:50.908Z,39.63
2022-12-09T21:54:19.050Z,41.47
2022-12-09T21:56:47.327Z,40.97
2022-12-09T21:59:15.431Z,34.30
2022-12-09T22:01:43.904Z,39.20
2022-12-09T22:04:16.090Z,37.77
2022-12-09T22:06:47.666Z,39.93
2022-12-09T22:09:16.550Z,41.40
2022-12-09T22:11:44.862Z,43.03
2022-12-09T22:14:13.288Z,45.27
2022-12-09T22:16:43.559Z,41.27
2022-12-09T22:19:18.541Z,49.13
2022-12-09T22:21:48.765Z,43.93
2022-12-09T22:24:17.757Z,43.37
2022-12-09T22:26:46.164Z,45.70
2022-12-09T22:29:15.573Z,47.07
2022-12-09T22:31:44.363Z,48.23
2022-12-09T22:34:14.387Z,44.40
2022-12-09T22:36:43.027Z,38.87
2022-12-09T22:39:14.309Z,41.53
2022-12-09T22:41:43.754Z,33.83
2022-12-09T22:44:14.727Z,35.47
2022-12-09T22:46:43.179Z,38.07
2022-12-09T22:49:12.999Z,37.27
2022-12-09T22:51:41.826Z,35.00
2022-12-09T22:54:12.206Z,37.53
2022-12-09T22:56:42.793Z,31.53
2022-12-09T22:59:11.255Z,31.63
2022-12-09T23:01:39.503Z,31.70
2022-12-09T23:04:08.747Z,32.37
2022-12-09T23:06:38.773Z,33.30
2022-12-09T23:09:08.379Z,28.43
2022-12-09T23:11:38.057Z,29.33
2022-12-09T23:14:06.326Z,28.30
2022-12-09T23:16:34.578Z,31.80
2022-12-09T23:19:02.879Z,31.10
2022-12-09T23:21:33.481Z,28.63
2022-12-09T23:24:03.395Z,28.83
2022-12-09T23:26:33.759Z,24.73
2022-12-09T23:29:04.578Z,29.63
2022-12-09T23:31:34.525Z,28.93
2022-12-09T23:34:03.858Z,28.53
2022-12-09T23:36:33.903Z,28.63
2022-12-09T23:39:03.412Z,28.03
2022-12-09T23:41:31.653Z,24.53
2022-12-09T23:43:59.645Z,25.47
2022-12-09T23:46:31.068Z,27.40
2022-12-09T23:48:59.093Z,27.57
2022-12-09T23:51:29.144Z,23.53
2022-12-09T23:53:58.830Z,23.77
2022-12-09T23:56:28.851Z,26.57
2022-12-09T23:58:58.772Z,26.17
